Time;durP1;ratioP1;P1;durP2;ratioP2;P2;SDS_P1;SDS_P2;PMS_P1;PMS_P2;Temp;Humidity;BMP_temperature;BMP_pressure;BME280_temperature;BME280_humidity;BME280_pressure;Samples;Min_cycle;Max_cycle;Signal;HPM_P1;HPM_P2
2022/11/29 00:01:13;;;;;;;1999.90;999.90;;;8.30;99.90;;;;;;5072344;28;20494;-81
2022/11/29 00:03:38;;;;;;;1999.90;999.90;;;8.40;99.90;;;;;;5072121;28;20048;-81
2022/11/29 00:06:19;;;;;;;1999.90;999.90;;;8.40;99.90;;;;;;5072204;28;20040;-77
2022/11/29 00:08:45;;;;;;;1999.90;999.90;;;8.40;99.90;;;;;;5072072;28;20078;-80
2022/11/29 00:14:08;;;;;;;1999.90;999.90;;;8.10;99.90;;;;;;5073461;28;20173;-81
2022/11/29 00:16:34;;;;;;;1999.90;999.90;;;8.00;99.90;;;;;;5073017;28;20107;-81
2022/11/29 00:19:00;;;;;;;1999.90;999.90;;;7.90;99.90;;;;;;5072893;28;20103;-77
2022/11/29 00:21:26;;;;;;;1999.90;999.90;;;7.80;99.90;;;;;;5072032;28;20028;-77
2022/11/29 00:23:52;;;;;;;1999.90;999.90;;;7.70;99.90;;;;;;5069037;28;20025;-77
2022/11/29 00:26:18;;;;;;;1999.90;999.90;;;7.60;99.90;;;;;;5051911;28;20025;-81
2022/11/29 00:28:43;;;;;;;1999.90;999.90;;;7.60;99.90;;;;;;5053105;28;20083;-81
2022/11/29 00:31:29;;;;;;;1999.90;999.90;;;7.50;99.90;;;;;;5051763;28;20116;-81
2022/11/29 00:33:55;;;;;;;1999.90;999.90;;;7.50;99.90;;;;;;5052058;28;20029;-81
2022/11/29 00:36:21;;;;;;;1999.90;999.90;;;7.40;99.90;;;;;;5051651;28;20021;-81
2022/11/29 00:38:47;;;;;;;1999.90;999.90;;;7.30;99.90;;;;;;5051323;28;20039;-81
2022/11/29 00:41:13;;;;;;;1999.90;999.90;;;7.30;99.90;;;;;;5051599;28;20079;-81
2022/11/29 00:43:39;;;;;;;1999.90;999.90;;;7.30;99.90;;;;;;5051934;28;20468;-77
2022/11/29 00:46:05;;;;;;;1999.90;999.90;;;7.20;99.90;;;;;;5091467;28;20020;-81
2022/11/29 00:48:31;;;;;;;1999.90;999.90;;;7.10;99.90;;;;;;5092813;28;20055;-77
2022/11/29 00:50:57;;;;;;;1999.90;999.90;;;7.00;99.90;;;;;;5083372;28;20020;-81
2022/11/29 00:53:23;;;;;;;1999.90;999.90;;;7.00;99.90;;;;;;5070291;28;20039;-81
2022/11/29 00:55:50;;;;;;;1999.90;999.90;;;6.90;99.90;;;;;;5071522;28;20369;-77
2022/11/29 00:58:16;;;;;;;1999.90;999.90;;;7.00;99.90;;;;;;5072435;28;20487;-81
2022/11/29 01:00:42;;;;;;;1999.90;999.90;;;7.00;99.90;;;;;;5072469;28;20021;-81
2022/11/29 01:03:08;;;;;;;1999.90;999.90;;;7.10;99.90;;;;;;5070468;28;20043;-81
2022/11/29 01:05:34;;;;;;;1999.90;999.90;;;6.90;99.90;;;;;;5071240;28;20031;-81
2022/11/29 01:07:59;;;;;;;1999.90;999.90;;;6.90;99.90;;;;;;5071860;28;20499;-81
2022/11/29 01:10:26;;;;;;;1999.90;999.90;;;6.90;99.90;;;;;;5071254;28;20476;-81
2022/11/29 01:12:52;;;;;;;1999.90;999.90;;;6.80;99.90;;;;;;5072533;28;20036;-81
2022/11/29 01:15:17;;;;;;;1999.90;999.90;;;6.80;99.90;;;;;;5070477;28;20499;-81
2022/11/29 01:17:43;;;;;;;1999.90;999.90;;;6.80;99.90;;;;;;5070691;28;20028;-78
2022/11/29 01:20:11;;;;;;;1999.90;999.90;;;6.70;99.90;;;;;;5071691;28;20029;-79
2022/11/29 01:22:38;;;;;;;1999.90;999.90;;;6.60;99.90;;;;;;5071354;28;20029;-80
2022/11/29 01:25:04;;;;;;;1999.90;999.90;;;6.60;99.90;;;;;;5066957;28;20017;-80
2022/11/29 01:27:31;;;;;;;1999.90;999.90;;;6.60;99.90;;;;;;5084723;28;20035;-82
2022/11/29 01:29:56;;;;;;;1999.90;999.90;;;6.60;99.90;;;;;;5084427;28;20025;-79
2022/11/29 01:32:22;;;;;;;1999.90;999.90;;;6.50;99.90;;;;;;5051825;28;20036;-79
2022/11/29 01:34:48;;;;;;;1999.90;999.90;;;6.40;99.90;;;;;;5084442;28;20558;-83
2022/11/29 01:37:13;;;;;;;1999.90;999.90;;;6.40;99.90;;;;;;5084616;28;20056;-83
2022/11/29 01:39:39;;;;;;;1999.90;999.90;;;6.40;99.90;;;;;;5084365;28;20067;-83
2022/11/29 01:42:15;;;;;;;1999.90;999.90;;;6.40;99.90;;;;;;5084015;28;20025;-83
2022/11/29 01:44:44;;;;;;;1999.90;999.90;;;6.30;99.90;;;;;;5070850;28;20069;-82
2022/11/29 01:47:11;;;;;;;1999.90;999.90;;;6.40;99.90;;;;;;5070858;28;20028;-79
2022/11/29 01:49:42;;;;;;;1999.90;999.90;;;6.30;99.90;;;;;;5071232;28;20111;-83
2022/11/29 01:52:22;;;;;;;1999.90;999.90;;;6.20;99.90;;;;;;5068846;28;20036;-79
2022/11/29 01:54:54;;;;;;;1999.90;999.90;;;6.20;99.90;;;;;;5067813;28;20072;-83
2022/11/29 01:57:20;;;;;;;1999.90;999.90;;;6.20;99.90;;;;;;5072237;28;20048;-79
2022/11/29 01:59:49;;;;;;;1999.90;999.90;;;6.10;99.90;;;;;;5070842;28;20021;-82
2022/11/29 02:02:41;;;;;;;1999.90;999.90;;;6.10;99.90;;;;;;5070289;28;20024;-79
2022/11/29 02:05:08;;;;;;;1999.90;999.90;;;6.10;99.90;;;;;;5057609;28;20477;-79
2022/11/29 02:07:35;;;;;;;1999.90;999.90;;;6.10;99.90;;;;;;5070979;28;20400;-82
2022/11/29 02:10:01;;;;;;;1999.90;999.90;;;6.10;99.90;;;;;;5070657;28;20032;-79
2022/11/29 02:12:58;;;;;;;1999.90;999.90;;;6.00;99.90;;;;;;5070366;28;20021;-82
2022/11/29 02:15:36;;;;;;;1999.90;999.90;;;6.00;99.90;;;;;;5070770;28;20040;-79
2022/11/29 02:18:13;;;;;;;1999.90;999.90;;;5.90;99.90;;;;;;5072053;28;20029;-83
2022/11/29 02:20:51;;;;;;;1999.90;999.90;;;5.90;99.90;;;;;;5070756;28;20063;-82
2022/11/29 02:23:28;;;;;;;1999.90;999.90;;;5.90;99.90;;;;;;5070329;28;20021;-79
2022/11/29 02:26:06;;;;;;;1999.90;999.90;;;5.90;99.90;;;;;;5066755;28;20492;-83
2022/11/29 02:28:47;;;;;;;1999.90;999.90;;;5.80;99.90;;;;;;5067067;28;20029;-79
2022/11/29 02:31:31;;;;;;;1999.90;999.90;;;5.80;99.90;;;;;;5051960;28;20057;-79
2022/11/29 02:34:03;;;;;;;1999.90;999.90;;;5.80;99.90;;;;;;5051601;28;20029;-78
2022/11/29 02:36:43;;;;;;;1999.90;999.90;;;5.80;99.90;;;;;;5067155;28;20108;-83
2022/11/29 02:39:42;;;;;;;1999.90;999.90;;;5.80;99.90;;;;;;5066971;28;20028;-83
2022/11/29 02:42:20;;;;;;;1999.90;999.90;;;5.70;99.90;;;;;;5066990;28;20083;-79
2022/11/29 02:45:21;;;;;;;1999.90;999.90;;;5.70;99.90;;;;;;5071480;28;20024;-79
2022/11/29 02:48:04;;;;;;;1999.90;999.90;;;5.60;99.90;;;;;;5094566;28;20047;-82
2022/11/29 02:51:03;;;;;;;1999.90;999.90;;;5.70;99.90;;;;;;5092928;28;20024;-79
2022/11/29 02:53:42;;;;;;;1999.90;999.90;;;5.80;99.90;;;;;;5054230;28;20068;-83
2022/11/29 02:56:22;;;;;;;1999.90;999.90;;;5.80;99.90;;;;;;5053213;28;20101;-79
2022/11/29 02:59:25;;;;;;;1999.90;999.90;;;5.80;99.90;;;;;;5053788;28;20028;-78
2022/11/29 03:02:27;;;;;;;1999.90;999.90;;;5.70;99.90;;;;;;5055214;28;20111;-78
2022/11/29 03:05:11;;;;;;;1999.90;999.90;;;5.70;99.90;;;;;;5073635;28;20044;-83
2022/11/29 03:08:02;;;;;;;1999.90;999.90;;;5.80;99.90;;;;;;5075035;28;20032;-83
2022/11/29 03:10:30;;;;;;;1999.90;999.90;;;5.70;99.90;;;;;;5073098;28;20072;-79
2022/11/29 03:12:57;;;;;;;1999.90;999.90;;;5.70;99.90;;;;;;5074578;28;20086;-83
2022/11/29 03:15:29;;;;;;;1999.90;999.90;;;5.70;99.90;;;;;;5073298;28;20032;-83
2022/11/29 03:17:57;;;;;;;1999.90;999.90;;;5.70;99.90;;;;;;5073629;28;20048;-83
2022/11/29 03:20:44;;;;;;;1999.90;999.90;;;5.70;99.90;;;;;;5073129;28;20067;-83
2022/11/29 03:23:26;;;;;;;1999.90;999.90;;;5.80;99.90;;;;;;5074134;28;20017;-83
2022/11/29 03:26:07;;;;;;;1999.90;999.90;;;5.80;99.90;;;;;;5069440;28;20033;-79
2022/11/29 03:28:53;;;;;;;1999.90;999.90;;;5.80;99.90;;;;;;5069919;28;20051;-83
2022/11/29 03:31:33;;;;;;;1999.90;999.90;;;5.80;99.90;;;;;;5069752;28;20404;-78
2022/11/29 03:34:11;;;;;;;1999.90;999.90;;;5.70;99.90;;;;;;5054618;28;20100;-83
2022/11/29 03:37:11;;;;;;;1999.90;999.90;;;5.60;99.90;;;;;;5052889;28;20089;-83
2022/11/29 03:39:55;;;;;;;1999.90;999.90;;;5.60;99.90;;;;;;5052770;28;20017;-79
2022/11/29 03:42:51;;;;;;;1999.90;999.90;;;5.50;99.90;;;;;;5068830;28;20033;-79
2022/11/29 03:45:37;;;;;;;1999.90;999.90;;;5.50;99.90;;;;;;5079256;28;20024;-79
2022/11/29 03:48:15;;;;;;;1999.90;999.90;;;5.50;99.90;;;;;;5093152;28;20078;-83
2022/11/29 03:50:58;;;;;;;1999.90;999.90;;;5.50;99.90;;;;;;5083826;28;20037;-78
2022/11/29 03:53:38;;;;;;;1999.90;999.90;;;5.50;99.90;;;;;;5071308;28;20040;-79
2022/11/29 03:56:38;;;;;;;1999.90;999.90;;;5.60;99.90;;;;;;5071653;28;20067;-83
2022/11/29 03:59:22;;;;;;;1999.90;999.90;;;5.60;99.90;;;;;;5072268;28;20119;-82
2022/11/29 04:02:18;;;;;;;1999.90;999.90;;;5.70;99.90;;;;;;5072478;28;20032;-84
2022/11/29 04:05:02;;;;;;;1999.90;999.90;;;5.70;99.90;;;;;;5071839;28;20059;-78
2022/11/29 04:07:49;;;;;;;1999.90;999.90;;;5.60;99.90;;;;;;5072448;28;20037;-83
2022/11/29 04:10:48;;;;;;;1999.90;999.90;;;5.50;99.90;;;;;;5073069;28;20020;-83
2022/11/29 04:13:16;;;;;;;1999.90;999.90;;;5.40;99.90;;;;;;5072088;28;20040;-83
2022/11/29 04:16:11;;;;;;;1999.90;999.90;;;5.40;99.90;;;;;;5068279;28;20170;-79
2022/11/29 04:18:57;;;;;;;1999.90;999.90;;;5.40;99.90;;;;;;5073158;28;20464;-78
2022/11/29 04:21:25;;;;;;;1999.90;999.90;;;5.40;99.90;;;;;;5053467;28;20508;-83
2022/11/29 04:24:03;;;;;;;1999.90;999.90;;;5.50;99.90;;;;;;5071383;28;20029;-83
2022/11/29 04:26:44;;;;;;;1999.90;999.90;;;5.40;99.90;;;;;;5068080;28;20020;-79
2022/11/29 04:29:15;;;;;;;1999.90;999.90;;;5.40;99.90;;;;;;5053404;28;20025;-79
2022/11/29 04:32:13;;;;;;;1999.90;999.90;;;5.50;99.90;;;;;;5051999;28;20044;-79
2022/11/29 04:35:17;;;;;;;1999.90;999.90;;;5.60;99.90;;;;;;5051747;28;20143;-79
2022/11/29 04:37:45;;;;;;;1999.90;999.90;;;5.80;99.90;;;;;;5068677;28;20021;-78
2022/11/29 04:40:23;;;;;;;1999.90;999.90;;;5.80;99.90;;;;;;5052475;28;20025;-83
2022/11/29 04:43:07;;;;;;;1999.90;999.90;;;5.90;99.90;;;;;;5051685;28;20025;-83
2022/11/29 04:45:48;;;;;;;1999.90;999.90;;;5.80;99.90;;;;;;5080928;28;20088;-78
2022/11/29 04:48:46;;;;;;;1999.90;999.90;;;5.80;99.90;;;;;;5093220;28;20068;-79
2022/11/29 04:51:49;;;;;;;1999.90;999.90;;;5.80;99.90;;;;;;5081394;28;20103;-83
2022/11/29 04:54:22;;;;;;;1999.90;999.90;;;5.70;99.90;;;;;;5071833;28;20040;-79
2022/11/29 04:57:01;;;;;;;1999.90;999.90;;;5.60;99.90;;;;;;5072501;28;20021;-83
2022/11/29 04:59:52;;;;;;;1999.90;999.90;;;5.60;99.90;;;;;;5071615;28;20070;-83
2022/11/29 05:02:42;;;;;;;1999.90;999.90;;;5.60;99.90;;;;;;5072484;28;20367;-83
2022/11/29 05:05:26;;;;;;;1999.90;999.90;;;5.50;99.90;;;;;;5070655;28;20040;-84
2022/11/29 05:08:13;;;;;;;1999.90;999.90;;;5.50;99.90;;;;;;5071145;28;20032;-79
2022/11/29 05:11:20;;;;;;;1999.90;999.90;;;5.50;99.90;;;;;;5070849;28;20379;-79
2022/11/29 05:13:48;;;;;;;1999.90;999.90;;;5.50;99.90;;;;;;5022735;28;20036;-78
2022/11/29 05:16:20;;;;;;;1999.90;999.90;;;5.40;99.90;;;;;;5071307;28;20024;-79
2022/11/29 05:19:16;;;;;;;1999.90;999.90;;;5.40;99.90;;;;;;5072308;28;20040;-79
2022/11/29 05:22:00;;;;;;;1999.90;999.90;;;5.40;99.90;;;;;;5070835;28;20039;-79
2022/11/29 05:24:32;;;;;;;1999.90;999.90;;;5.30;99.90;;;;;;5070948;28;20025;-79
2022/11/29 05:27:09;;;;;;;1999.90;999.90;;;5.20;99.90;;;;;;5067496;28;20036;-78
2022/11/29 05:30:20;;;;;;;1999.90;999.90;;;5.20;99.90;;;;;;5067803;28;20025;-83
2022/11/29 05:33:13;;;;;;;1999.90;999.90;;;5.10;99.90;;;;;;5047859;28;20561;-78
2022/11/29 05:36:21;;;;;;;1999.90;999.90;;;5.00;99.90;;;;;;5064540;28;20055;-83
2022/11/29 05:39:13;;;;;;;1999.90;999.90;;;4.90;99.90;;;;;;5070697;28;20029;-82
2022/11/29 05:42:03;;;;;;;1999.90;999.90;;;4.80;99.90;;;;;;5072136;28;20426;-78
2022/11/29 05:44:38;;;;;;;1999.90;999.90;;;4.80;99.90;;;;;;5070631;28;20020;-78
2022/11/29 05:47:08;;;;;;;1999.90;999.90;;;4.80;99.90;;;;;;5070952;28;20025;-78
2022/11/29 05:49:48;;;;;;;1999.90;999.90;;;4.70;99.90;;;;;;5071089;28;20021;-83
2022/11/29 05:52:24;;;;;;;1999.90;999.90;;;4.70;99.90;;;;;;5065830;28;20029;-82
2022/11/29 05:54:58;;;;;;;1999.90;999.90;;;4.60;99.90;;;;;;5067624;28;20511;-83
2022/11/29 05:57:54;;;;;;;1999.90;999.90;;;4.60;99.90;;;;;;5070657;28;20024;-78
2022/11/29 06:00:20;;;;;;;1999.90;999.90;;;4.60;99.90;;;;;;5070686;28;20463;-78
2022/11/29 06:03:02;;;;;;;1999.90;999.90;;;4.60;99.90;;;;;;5071350;28;20098;-78
2022/11/29 06:05:46;;;;;;;1999.90;999.90;;;4.60;99.90;;;;;;5071798;28;20103;-78
2022/11/29 06:08:44;;;;;;;1999.90;999.90;;;4.50;99.90;;;;;;5071834;28;20316;-78
2022/11/29 06:11:32;;;;;;;1999.90;999.90;;;4.50;99.90;;;;;;5071487;28;20106;-83
2022/11/29 06:14:33;;;;;;;1999.90;999.90;;;4.40;99.90;;;;;;5072301;28;20023;-78
2022/11/29 06:17:24;;;;;;;1999.90;999.90;;;4.50;99.90;;;;;;5054547;28;20407;-83
2022/11/29 06:20:24;;;;;;;1999.90;999.90;;;4.50;99.90;;;;;;5074497;28;20058;-83
2022/11/29 06:22:50;;;;;;;1999.90;999.90;;;4.50;99.90;;;;;;5073905;28;20025;-78
2022/11/29 06:25:22;;;;;;;1999.90;999.90;;;4.50;99.90;;;;;;5073978;28;20054;-78
2022/11/29 06:28:06;;;;;;;1999.90;999.90;;;4.50;99.90;;;;;;5054363;28;20049;-79
2022/11/29 06:31:03;;;;;;;1999.90;999.90;;;4.60;99.90;;;;;;5053873;28;20123;-83
2022/11/29 06:33:29;;;;;;;1999.90;999.90;;;4.60;99.90;;;;;;5054344;28;20036;-83
2022/11/29 06:36:16;;;;;;;1999.90;999.90;;;4.60;99.90;;;;;;5064382;28;20025;-83
2022/11/29 06:38:42;;;;;;;1999.90;999.90;;;4.60;99.90;;;;;;5072198;28;20021;-78
2022/11/29 06:41:16;;;;;;;1999.90;999.90;;;4.70;99.90;;;;;;5071278;28;20514;-83
2022/11/29 06:43:42;;;;;;;1999.90;999.90;;;4.80;99.90;;;;;;5074004;28;20028;-83
2022/11/29 06:46:22;;;;;;;1999.90;999.90;;;4.90;99.90;;;;;;5078436;28;20080;-83
2022/11/29 06:48:57;;;;;;;1999.90;999.90;;;5.00;99.90;;;;;;5077668;28;20028;-87
2022/11/29 06:51:43;;;;;;;1999.90;999.90;;;5.00;99.90;;;;;;5094468;28;20032;-79
2022/11/29 06:54:11;;;;;;;1999.90;999.90;;;5.00;99.90;;;;;;5076356;28;20391;-78
2022/11/29 06:56:54;;;;;;;1999.90;999.90;;;5.00;99.90;;;;;;5071996;28;20509;-78
2022/11/29 06:59:34;;;;;;;1999.90;999.90;;;4.90;99.90;;;;;;5081330;28;20043;-84
2022/11/29 07:02:23;;;;;;;1999.90;999.90;;;4.90;99.90;;;;;;5089743;28;20104;-84
2022/11/29 07:05:12;;;;;;;1999.90;999.90;;;4.90;99.90;;;;;;5072532;28;20558;-79
2022/11/29 07:07:40;;;;;;;1999.90;999.90;;;4.80;99.90;;;;;;5072656;28;20027;-78
2022/11/29 07:10:06;;;;;;;1999.90;999.90;;;4.80;99.90;;;;;;5073737;28;20770;-79
2022/11/29 07:12:32;;;;;;;1999.90;999.90;;;4.80;99.90;;;;;;5073217;28;20027;-79
2022/11/29 07:14:58;;;;;;;1999.90;999.90;;;4.80;99.90;;;;;;5073342;28;20028;-84
2022/11/29 07:17:42;;;;;;;1999.90;999.90;;;4.70;99.90;;;;;;5073589;28;20407;-79
2022/11/29 07:20:29;;;;;;;1999.90;999.90;;;4.80;99.90;;;;;;5071803;28;20024;-79
2022/11/29 07:23:01;;;;;;;1999.90;999.90;;;4.90;99.90;;;;;;5065136;28;20024;-80
2022/11/29 07:25:53;;;;;;;1999.90;999.90;;;4.90;99.90;;;;;;5070038;28;20025;-79
2022/11/29 07:28:31;;;;;;;1999.90;999.90;;;4.90;99.90;;;;;;5072621;28;20043;-84
2022/11/29 07:31:19;;;;;;;1999.90;999.90;;;4.90;99.90;;;;;;5067509;28;20064;-78
2022/11/29 07:33:59;;;;;;;1999.90;999.90;;;4.90;99.90;;;;;;5061534;28;20170;-79
2022/11/29 07:36:31;;;;;;;1999.90;999.90;;;4.90;99.90;;;;;;5066179;28;20084;-84
2022/11/29 07:39:18;;;;;;;1999.90;999.90;;;5.00;99.90;;;;;;5069688;28;20024;-78
2022/11/29 07:42:28;;;;;;;1999.90;999.90;;;5.00;99.90;;;;;;5066497;28;20091;-83
2022/11/29 07:45:28;;;;;;;1999.90;999.90;;;5.10;99.90;;;;;;4991954;28;20047;-78
2022/11/29 07:47:54;;;;;;;1999.90;999.90;;;5.20;99.90;;;;;;4973465;28;20030;-84
2022/11/29 07:50:20;;;;;;;1999.90;999.90;;;5.20;99.90;;;;;;5045283;28;20043;-79
2022/11/29 07:52:47;;;;;;;1999.90;999.90;;;5.20;99.90;;;;;;5070670;28;20033;-77
2022/11/29 07:55:22;;;;;;;1999.90;999.90;;;5.30;99.90;;;;;;5064090;28;20517;-82
2022/11/29 07:57:49;;;;;;;1999.90;999.90;;;5.40;99.90;;;;;;5068283;28;20028;-79
2022/11/29 08:00:16;;;;;;;1999.90;999.90;;;5.50;99.90;;;;;;5067781;28;20032;-79
2022/11/29 08:02:42;;;;;;;1999.90;999.90;;;5.60;99.90;;;;;;5066591;28;20127;-82
2022/11/29 08:05:09;;;;;;;1999.90;999.90;;;5.60;99.90;;;;;;5060324;28;20036;-81
2022/11/29 08:07:37;;;;;;;1999.90;999.90;;;5.70;99.90;;;;;;5072731;28;20052;-82
2022/11/29 08:10:09;;;;;;;1999.90;999.90;;;5.90;99.90;;;;;;5066424;28;20044;-79
2022/11/29 08:12:34;;;;;;;1999.90;999.90;;;5.90;99.90;;;;;;5076954;28;20063;-79
2022/11/29 08:15:01;;;;;;;1999.90;999.90;;;6.00;99.90;;;;;;5065042;28;20053;-82
2022/11/29 08:17:27;;;;;;;1999.90;999.90;;;6.10;99.90;;;;;;5068846;28;20036;-83
2022/11/29 08:19:52;;;;;;;1999.90;999.90;;;6.10;99.90;;;;;;5082937;28;20079;-79
2022/11/29 08:22:18;;;;;;;1999.90;999.90;;;6.20;99.90;;;;;;5054431;28;20440;-79
2022/11/29 08:24:44;;;;;;;1999.90;999.90;;;6.30;99.90;;;;;;5066994;28;20459;-80
2022/11/29 08:27:10;;;;;;;1999.90;999.90;;;6.40;99.90;;;;;;5062724;28;20056;-79
2022/11/29 08:29:35;;;;;;;1999.90;999.90;;;6.70;99.90;;;;;;5070822;28;20460;-79
2022/11/29 08:32:01;;;;;;;1999.90;999.90;;;7.30;99.90;;;;;;5059263;28;20425;-80
2022/11/29 08:34:27;;;;;;;1999.90;999.90;;;7.50;99.90;;;;;;5078480;28;20434;-83
2022/11/29 08:36:55;;;;;;;1999.90;999.90;;;7.50;99.90;;;;;;5059699;28;20058;-80
2022/11/29 08:39:21;;;;;;;1999.90;999.90;;;7.50;99.90;;;;;;5052933;28;20395;-83
2022/11/29 08:41:48;;;;;;;1999.90;999.90;;;7.40;99.90;;;;;;5060533;28;20024;-79
2022/11/29 08:44:13;;;;;;;1999.90;999.90;;;7.40;99.90;;;;;;5070682;28;20479;-82
2022/11/29 08:49:24;;;;;;;1999.90;999.90;;;7.40;99.90;;;;;;5063830;28;20090;-78
2022/11/29 08:53:40;;;;;;;1999.90;999.90;;;7.50;99.90;;;;;;5076541;28;20131;-78
2022/11/29 08:54:37;;;;;;;1999.90;999.90;;;7.50;99.90;;;;;;5067631;28;20508;-81
2022/11/29 08:57:02;;;;;;;1999.90;999.90;;;7.60;99.90;;;;;;5070173;28;20291;-78
2022/11/29 08:59:28;;;;;;;1999.90;999.90;;;7.70;99.90;;;;;;5061304;28;20028;-81
2022/11/29 09:01:54;;;;;;;1999.90;999.90;;;7.70;99.90;;;;;;5072923;28;20033;-78
2022/11/29 09:04:19;;;;;;;1999.90;999.90;;;7.80;99.90;;;;;;5070432;28;20037;-78
2022/11/29 09:06:48;;;;;;;1999.90;999.90;;;7.80;99.90;;;;;;5071483;28;20040;-81
2022/11/29 09:09:15;;;;;;;1999.90;999.90;;;7.90;99.90;;;;;;5065293;28;20438;-81
2022/11/29 09:11:41;;;;;;;1999.90;999.90;;;8.00;99.90;;;;;;5095467;28;20043;-81
2022/11/29 09:14:09;;;;;;;1999.90;999.90;;;8.10;99.90;;;;;;5067748;28;20107;-80
2022/11/29 09:16:37;;;;;;;1999.90;999.90;;;8.20;99.90;;;;;;5070654;28;20044;-78
2022/11/29 09:19:04;;;;;;;1999.90;999.90;;;8.20;99.90;;;;;;5066278;28;20230;-81
2022/11/29 09:21:33;;;;;;;1999.90;999.90;;;8.30;99.90;;;;;;5064801;28;20059;-78
2022/11/29 09:24:00;;;;;;;1999.90;999.90;;;8.40;99.90;;;;;;5066076;28;20457;-79
2022/11/29 09:26:33;;;;;;;1999.90;999.90;;;8.40;99.90;;;;;;5071440;28;20398;-80
2022/11/29 09:29:00;;;;;;;1999.90;999.90;;;8.50;99.90;;;;;;5065817;28;20044;-77
2022/11/29 09:31:27;;;;;;;1999.90;999.90;;;8.50;99.90;;;;;;5066904;28;20051;-78
2022/11/29 09:33:54;;;;;;;1999.90;999.90;;;8.70;99.90;;;;;;5098942;28;20028;-78
2022/11/29 09:36:20;;;;;;;1999.90;999.90;;;8.70;99.90;;;;;;5064795;28;20072;-78
2022/11/29 09:38:45;;;;;;;1999.90;999.90;;;8.80;99.90;;;;;;5059459;28;20054;-80
2022/11/29 09:41:32;;;;;;;1999.90;999.90;;;8.90;99.90;;;;;;5065839;28;20028;-78
2022/11/29 09:44:21;;;;;;;1999.90;999.90;;;9.00;99.90;;;;;;5069359;28;20028;-78
2022/11/29 09:47:05;;;;;;;1999.90;999.90;;;9.10;99.90;;;;;;5066204;28;20044;-79
2022/11/29 09:49:50;;;;;;;1999.90;999.90;;;9.20;99.90;;;;;;5071755;28;20048;-78
2022/11/29 09:52:34;;;;;;;1999.90;999.90;;;9.30;99.90;;;;;;5090290;28;20069;-77
2022/11/29 09:55:33;;;;;;;1999.90;999.90;;;9.40;99.90;;;;;;5082503;28;20078;-79
2022/11/29 09:58:00;;;;;;;1999.90;999.90;;;9.50;99.90;;;;;;5067290;28;20042;-78
2022/11/29 10:00:28;;;;;;;1999.90;999.90;;;9.60;99.90;;;;;;5069851;28;20024;-81
2022/11/29 10:03:08;;;;;;;1999.90;999.90;;;9.70;99.90;;;;;;5072216;28;20079;-81
2022/11/29 10:05:45;;;;;;;1999.90;999.90;;;9.80;99.90;;;;;;5066673;28;20021;-80
2022/11/29 10:08:19;;;;;;;1999.90;999.90;;;9.90;99.90;;;;;;5073919;28;20465;-78
2022/11/29 10:10:47;;;;;;;1999.90;999.90;;;10.00;99.90;;;;;;5070287;28;20020;-78
2022/11/29 10:13:32;;;;;;;1999.90;999.90;;;10.10;99.90;;;;;;5069826;28;20052;-78
2022/11/29 10:16:11;;;;;;;1999.90;999.90;;;10.10;99.90;;;;;;5068551;28;20040;-81
2022/11/29 10:18:44;;;;;;;1999.90;999.90;;;10.20;99.90;;;;;;5065168;28;20028;-78
2022/11/29 10:21:28;;;;;;;1999.90;999.90;;;10.20;99.90;;;;;;5080095;28;20475;-79
2022/11/29 10:24:02;;;;;;;1999.90;999.90;;;10.30;99.90;;;;;;5063725;28;20032;-78
2022/11/29 10:26:28;;;;;;;1999.90;999.90;;;10.60;99.90;;;;;;5066781;28;20032;-81
2022/11/29 10:28:56;;;;;;;1999.90;999.90;;;10.60;99.90;;;;;;5071376;28;20395;-78
2022/11/29 10:31:31;;;;;;;1999.90;999.90;;;10.70;99.90;;;;;;5077200;28;20031;-78
2022/11/29 10:34:00;;;;;;;1999.90;999.90;;;10.70;99.90;;;;;;5073417;28;20028;-78
2022/11/29 10:36:38;;;;;;;1999.90;999.90;;;10.70;99.90;;;;;;5066954;28;20062;-79
2022/11/29 10:39:11;;;;;;;1999.90;999.90;;;10.80;99.90;;;;;;5069150;28;20033;-78
2022/11/29 10:41:37;;;;;;;1999.90;999.90;;;10.80;99.90;;;;;;5070051;28;20463;-81
2022/11/29 10:44:03;;;;;;;1999.90;999.90;;;10.90;99.90;;;;;;5068379;28;20112;-79
2022/11/29 10:46:35;;;;;;;1999.90;999.90;;;10.90;99.90;;;;;;5067357;28;20127;-77
2022/11/29 10:49:10;;;;;;;1999.90;999.90;;;11.00;99.90;;;;;;5067782;28;20028;-77
2022/11/29 10:51:37;;;;;;;1999.90;999.90;;;11.10;99.90;;;;;;5096914;27;20040;-78
2022/11/29 10:54:31;;;;;;;1999.90;999.90;;;11.10;99.90;;;;;;5067551;28;20426;-80
2022/11/29 10:56:59;;;;;;;1999.90;999.90;;;11.10;99.90;;;;;;5065227;28;20430;-78
2022/11/29 10:59:27;;;;;;;1999.90;999.90;;;11.20;99.90;;;;;;5069119;28;20020;-78
2022/11/29 11:01:54;;;;;;;1999.90;999.90;;;11.30;99.90;;;;;;5070055;28;20033;-77
2022/11/29 11:04:36;;;;;;;1999.90;999.90;;;11.50;99.90;;;;;;5067819;28;20048;-81
2022/11/29 11:07:04;;;;;;;1999.90;999.90;;;11.50;99.90;;;;;;5068885;28;20036;-78
2022/11/29 11:09:46;;;;;;;1999.90;999.90;;;11.70;99.90;;;;;;5073290;28;20024;-83
2022/11/29 11:12:14;;;;;;;1999.90;999.90;;;11.70;99.90;;;;;;5072500;28;20468;-78
2022/11/29 11:14:41;;;;;;;1999.90;999.90;;;11.80;99.90;;;;;;5069833;28;20058;-78
2022/11/29 11:17:30;;;;;;;1999.90;999.90;;;11.80;99.90;;;;;;5072033;28;20028;-81
2022/11/29 11:20:19;;;;;;;1999.90;999.90;;;11.80;99.90;;;;;;5071120;28;20395;-77
2022/11/29 11:23:03;;;;;;;1999.90;999.90;;;11.90;99.90;;;;;;5067503;28;20071;-81
2022/11/29 11:25:33;;;;;;;1999.90;999.90;;;12.00;99.90;;;;;;5068003;28;20013;-78
2022/11/29 11:28:33;;;;;;;1999.90;999.90;;;12.00;99.90;;;;;;5071591;28;20073;-81
2022/11/29 11:31:06;;;;;;;1999.90;999.90;;;12.10;99.90;;;;;;5093619;27;20036;-81
2022/11/29 11:33:52;;;;;;;1999.90;999.90;;;12.30;99.90;;;;;;5061183;28;20120;-77
2022/11/29 11:36:24;;;;;;;1999.90;999.90;;;12.40;99.90;;;;;;5066927;28;20531;-81
2022/11/29 11:39:17;;;;;;;1999.90;999.90;;;12.50;99.90;;;;;;5074348;28;20426;-77
2022/11/29 11:44:35;;;;;;;1999.90;999.90;;;12.70;99.90;;;;;;5072512;28;19935;-80
2022/11/29 11:47:05;;;;;;;1999.90;999.90;;;12.60;99.90;;;;;;5071819;28;20024;-80
2022/11/29 11:49:45;;;;;;;1999.90;999.90;;;12.60;99.90;;;;;;5068974;28;20021;-81
2022/11/29 11:52:23;;;;;;;1999.90;999.90;;;12.60;99.90;;;;;;5069950;28;20025;-80
2022/11/29 11:54:58;;;;;;;1999.90;999.90;;;12.50;99.90;;;;;;5059933;28;20032;-80
2022/11/29 11:57:26;;;;;;;1999.90;999.90;;;12.70;99.90;;;;;;5063732;28;20120;-80
2022/11/29 11:59:57;;;;;;;1999.90;999.90;;;12.90;99.90;;;;;;5070216;28;20833;-80
2022/11/29 12:02:34;;;;;;;1999.90;999.90;;;12.80;99.90;;;;;;5069344;28;20059;-80
2022/11/29 12:05:03;;;;;;;1999.90;999.90;;;12.80;99.90;;;;;;5068998;28;20024;-78
2022/11/29 12:07:40;;;;;;;1999.90;999.90;;;13.00;99.90;;;;;;5065018;28;20506;-78
2022/11/29 12:10:16;;;;;;;1999.90;999.90;;;12.90;99.90;;;;;;5068985;28;20033;-78
2022/11/29 12:12:43;;;;;;;1999.90;999.90;;;12.90;99.90;;;;;;5069026;28;20065;-80
2022/11/29 12:15:43;;;;;;;1999.90;999.90;;;13.00;99.90;;;;;;5066885;28;20058;-80
2022/11/29 12:18:23;;;;;;;1999.90;999.90;;;13.20;99.90;;;;;;5036237;28;20395;-80
2022/11/29 12:20:56;;;;;;;1999.90;999.90;;;13.50;99.90;;;;;;5068522;28;20027;-78
2022/11/29 12:23:24;;;;;;;1999.90;999.90;;;13.70;99.90;;;;;;5062803;28;20107;-78
2022/11/29 12:26:02;;;;;;;1999.90;999.90;;;13.60;99.90;;;;;;5062696;28;20024;-78
2022/11/29 12:28:31;;;;;;;1999.90;999.90;;;13.70;99.90;;;;;;5065535;28;20028;-80
2022/11/29 12:31:10;;;;;;;1999.90;999.90;;;13.80;99.90;;;;;;5065079;28;20029;-78
2022/11/29 12:34:11;;;;;;;1999.90;999.90;;;13.80;99.90;;;;;;5062695;28;20087;-78
2022/11/29 12:37:01;;;;;;;1999.90;999.90;;;13.60;99.90;;;;;;5064945;28;20055;-80
2022/11/29 12:40:17;;;;;;;1999.90;999.90;;;13.50;99.90;;;;;;5064149;28;20294;-80
2022/11/29 12:43:08;;;;;;;1999.90;999.90;;;13.80;99.90;;;;;;5004658;28;20452;-78
2022/11/29 12:45:48;;;;;;;1999.90;999.90;;;13.90;99.90;;;;;;5066467;28;20052;-78
2022/11/29 12:48:41;;;;;;;1999.90;999.90;;;13.70;99.90;;;;;;5065476;28;20119;-78
2022/11/29 12:51:33;;;;;;;1999.90;999.90;;;13.90;99.90;;;;;;5066670;28;20029;-80
2022/11/29 12:54:29;;;;;;;1999.90;999.90;;;14.00;99.90;;;;;;5058573;28;20063;-80
2022/11/29 12:57:16;;;;;;;1999.90;999.90;;;14.20;99.90;;;;;;5066997;28;20106;-78
2022/11/29 13:00:09;;;;;;;1999.90;999.90;;;14.30;99.90;;;;;;5059836;28;20012;-78
2022/11/29 13:02:53;;;;;;;1999.90;999.90;;;14.70;99.90;;;;;;5062350;28;20059;-80